createdAt,value
2023-02-06T00:00:51.581Z,99342.69
2023-02-06T00:03:40.664Z,99343.54
2023-02-06T00:06:10.745Z,99345.48
2023-02-06T00:08:40.062Z,99344.04
2023-02-06T00:11:14.045Z,99348.92
2023-02-06T00:13:47.980Z,99349.69
2023-02-06T00:16:29.035Z,99343.60
2023-02-06T00:19:00.240Z,99348.68
2023-02-06T00:21:33.245Z,99345.94
2023-02-06T00:24:07.469Z,99346.45
2023-02-06T00:26:37.630Z,99349.73
2023-02-06T00:29:10.071Z,99346.09
2023-02-06T00:31:40.155Z,99343.67
2023-02-06T00:34:10.153Z,99343.13
2023-02-06T00:36:40.646Z,99340.75
2023-02-06T00:39:11.627Z,99341.67
2023-02-06T00:41:41.333Z,99342.70
2023-02-06T00:44:14.286Z,99345.30
2023-02-06T00:46:49.546Z,99350.27
2023-02-06T00:49:20.526Z,99353.48
2023-02-06T00:51:50.547Z,99359.02
2023-02-06T00:54:26.007Z,99358.95
2023-02-06T00:56:55.652Z,99356.35
2023-02-06T00:59:25.086Z,99357.91
2023-02-06T01:01:54.674Z,99357.52
2023-02-06T01:04:24.713Z,99352.70
2023-02-06T01:06:54.617Z,99354.16
2023-02-06T01:09:24.212Z,99355.14
2023-02-06T01:11:54.196Z,99352.48
2023-02-06T01:14:24.022Z,99350.88
2023-02-06T01:16:53.784Z,99353.92
2023-02-06T01:19:23.709Z,99357.55
2023-02-06T01:21:54.838Z,99358.34
2023-02-06T01:24:27.481Z,99355.37
2023-02-06T01:26:57.326Z,99356.08
2023-02-06T01:29:26.647Z,99358.39
2023-02-06T01:31:56.718Z,99364.98
2023-02-06T01:34:26.388Z,99358.14
2023-02-06T01:36:56.097Z,99362.56
2023-02-06T01:39:25.350Z,99363.52
2023-02-06T01:41:54.949Z,99361.20
2023-02-06T01:44:26.736Z,99362.92
2023-02-06T01:47:03.185Z,99361.47
2023-02-06T01:49:50.847Z,99363.77
2023-02-06T01:52:31.079Z,99366.08
2023-02-06T01:55:04.691Z,99367.95
2023-02-06T01:57:35.418Z,99377.73
2023-02-06T02:00:10.721Z,99384.61
2023-02-06T02:02:48.912Z,99384.68
2023-02-06T02:05:20.123Z,99383.79
2023-02-06T02:08:02.129Z,99383.61
2023-02-06T02:10:36.001Z,99385.89
2023-02-06T02:13:05.801Z,99382.02
2023-02-06T02:15:56.884Z,99383.45
2023-02-06T02:18:28.854Z,99382.47
2023-02-06T02:21:13.942Z,99379.38
2023-02-06T02:24:13.755Z,99381.33
2023-02-06T02:27:15.615Z,99382.11
2023-02-06T02:30:25.017Z,99379.34
2023-02-06T02:33:11.405Z,99381.98
2023-02-06T02:35:46.666Z,99382.65
2023-02-06T02:38:16.154Z,99386.90
2023-02-06T02:41:03.916Z,99390.08
2023-02-06T02:44:22.657Z,99388.00
2023-02-06T02:46:55.804Z,99389.30
2023-02-06T02:49:29.567Z,99395.98
2023-02-06T02:52:04.232Z,99402.21
2023-02-06T02:54:36.330Z,99402.55
2023-02-06T02:57:14.690Z,99404.80
2023-02-06T02:59:47.969Z,99405.97
2023-02-06T03:02:33.422Z,99408.25
2023-02-06T03:05:12.132Z,99408.37
2023-02-06T03:08:05.393Z,99411.77
2023-02-06T03:11:10.004Z,99416.23
2023-02-06T03:13:53.027Z,99418.39
2023-02-06T03:16:37.434Z,99419.19
2023-02-06T03:19:18.698Z,99418.39
2023-02-06T03:21:49.499Z,99418.88
2023-02-06T03:24:33.791Z,99425.39
2023-02-06T03:27:13.442Z,99428.89
2023-02-06T03:29:45.546Z,99431.36
2023-02-06T03:32:27.819Z,99430.16
2023-02-06T03:35:23.657Z,99426.08
2023-02-06T03:37:54.252Z,99426.04
2023-02-06T03:40:30.131Z,99427.06
2023-02-06T03:43:03.938Z,99431.39
2023-02-06T03:45:40.847Z,99436.44
2023-02-06T03:48:28.469Z,99438.93
2023-02-06T03:51:04.273Z,99441.77
2023-02-06T03:53:36.761Z,99444.40
2023-02-06T03:56:16.604Z,99443.48
2023-02-06T03:58:58.576Z,99439.02
2023-02-06T04:01:30.874Z,99441.08
2023-02-06T04:04:04.093Z,99436.39
2023-02-06T04:06:34.934Z,99432.55
2023-02-06T04:09:05.534Z,99439.44
2023-02-06T04:11:36.514Z,99439.99
2023-02-06T04:14:08.548Z,99437.70
2023-02-06T04:16:41.555Z,99442.33
2023-02-06T04:19:11.127Z,99442.98
2023-02-06T04:21:41.265Z,99446.63
2023-02-06T04:24:11.192Z,99446.48
2023-02-06T04:26:44.926Z,99440.92
2023-02-06T04:29:17.057Z,99442.84
2023-02-06T04:31:46.886Z,99441.84
2023-02-06T04:34:20.566Z,99436.39
2023-02-06T04:36:50.488Z,99438.33
2023-02-06T04:39:19.486Z,99437.64
2023-02-06T04:41:48.696Z,99438.98
2023-02-06T04:44:21.665Z,99439.73
2023-02-06T04:46:51.566Z,99441.19
2023-02-06T04:49:20.629Z,99444.30
2023-02-06T04:51:51.156Z,99440.66
2023-02-06T04:54:20.598Z,99441.16
2023-02-06T04:56:51.608Z,99437.75
2023-02-06T04:59:21.617Z,99437.90
2023-02-06T05:01:51.935Z,99436.01
2023-02-06T05:04:24.123Z,99434.73
2023-02-06T05:06:53.785Z,99438.02
2023-02-06T05:09:24.025Z,99441.31
2023-02-06T05:11:53.942Z,99437.88
2023-02-06T05:14:24.947Z,99442.27
2023-02-06T05:16:56.999Z,99439.58
2023-02-06T05:19:26.680Z,99445.95
2023-02-06T05:21:55.850Z,99443.11
2023-02-06T05:24:26.023Z,99439.59
2023-02-06T05:26:58.857Z,99441.21
2023-02-06T05:29:39.976Z,99443.66
2023-02-06T05:32:09.378Z,99436.79
2023-02-06T05:34:47.114Z,99434.41
2023-02-06T05:37:25.643Z,99438.80
2023-02-06T05:39:56.949Z,99444.08
2023-02-06T05:42:27.862Z,99447.09
2023-02-06T05:44:57.084Z,99449.27
2023-02-06T05:47:29.263Z,99450.20
2023-02-06T05:50:00.746Z,99448.58
2023-02-06T05:52:29.850Z,99451.28
2023-02-06T05:54:59.923Z,99448.37
2023-02-06T05:57:31.062Z,99444.29
2023-02-06T06:00:01.257Z,99448.83
2023-02-06T06:02:41.194Z,99455.02
2023-02-06T06:05:11.228Z,99454.95
2023-02-06T06:07:41.814Z,99453.98
2023-02-06T06:10:11.797Z,99456.44
2023-02-06T06:12:49.606Z,99448.81
2023-02-06T06:15:19.565Z,99451.39
2023-02-06T06:17:49.188Z,99453.77
2023-02-06T06:20:19.237Z,99451.67
2023-02-06T06:22:49.550Z,99452.41
2023-02-06T06:25:22.358Z,99453.11
2023-02-06T06:27:51.441Z,99448.41
2023-02-06T06:30:21.223Z,99451.39
2023-02-06T06:32:51.207Z,99457.35
2023-02-06T06:35:27.057Z,99459.33
2023-02-06T06:37:56.896Z,99463.82
2023-02-06T06:40:34.535Z,99466.36
2023-02-06T06:43:05.288Z,99470.05
2023-02-06T06:45:39.666Z,99469.61
2023-02-06T06:48:09.843Z,99468.36
2023-02-06T06:50:40.177Z,99467.90
2023-02-06T06:53:14.079Z,99472.14
2023-02-06T06:55:45.426Z,99469.36
2023-02-06T06:58:16.517Z,99467.80
2023-02-06T07:00:46.509Z,99474.34
2023-02-06T07:03:18.634Z,99474.94
2023-02-06T07:05:49.478Z,99481.89
2023-02-06T07:08:20.336Z,99483.61
2023-02-06T07:10:52.525Z,99480.55
2023-02-06T07:13:22.828Z,99483.06
2023-02-06T07:15:52.742Z,99484.15
2023-02-06T07:18:22.705Z,99480.98
2023-02-06T07:20:52.491Z,99483.95
2023-02-06T07:23:23.006Z,99484.02
2023-02-06T07:25:53.159Z,99476.71
2023-02-06T07:28:24.626Z,99475.11
2023-02-06T07:31:08.322Z,99474.96
2023-02-06T07:33:39.438Z,99476.42
2023-02-06T07:36:17.105Z,99468.36
2023-02-06T07:38:55.923Z,99473.92
2023-02-06T07:41:25.745Z,99474.56
2023-02-06T07:43:55.421Z,99480.79
2023-02-06T07:46:24.731Z,99479.73
2023-02-06T07:48:54.717Z,99478.34
2023-02-06T07:51:34.603Z,99479.12
2023-02-06T07:54:15.774Z,99484.00
2023-02-06T07:56:45.686Z,99489.67
2023-02-06T07:59:15.428Z,99490.89
2023-02-06T08:01:46.606Z,99491.13
2023-02-06T08:04:15.936Z,99487.17
2023-02-06T08:06:55.134Z,99486.24
2023-02-06T08:09:24.565Z,99487.00
2023-02-06T08:11:54.547Z,99487.14
2023-02-06T08:14:28.897Z,99490.03
2023-02-06T08:16:58.746Z,99496.41
2023-02-06T08:19:28.425Z,99497.10
2023-02-06T08:22:01.541Z,99497.55
2023-02-06T08:24:47.553Z,99499.09
2023-02-06T08:27:16.684Z,99504.42
2023-02-06T08:29:49.323Z,99498.46
2023-02-06T08:32:18.810Z,99505.55
2023-02-06T08:34:48.266Z,99504.11
2023-02-06T08:37:21.686Z,99497.04
2023-02-06T08:39:51.268Z,99496.55
2023-02-06T08:42:21.193Z,99495.24
2023-02-06T08:44:58.114Z,99500.30
2023-02-06T08:47:29.166Z,99502.05
2023-02-06T08:50:02.115Z,99495.83
2023-02-06T08:52:33.305Z,99498.02
2023-02-06T08:55:04.040Z,99497.88
2023-02-06T08:57:33.277Z,99496.30
2023-02-06T09:00:04.205Z,99497.39
2023-02-06T09:02:36.177Z,99503.13
2023-02-06T09:05:06.755Z,99500.16
2023-02-06T09:07:38.449Z,99507.83
2023-02-06T09:10:13.688Z,99506.48
2023-02-06T09:12:55.357Z,99504.82
2023-02-06T09:15:29.734Z,99504.90
2023-02-06T09:17:59.050Z,99506.96
2023-02-06T09:20:31.303Z,99512.04
2023-02-06T09:23:01.222Z,99509.05
2023-02-06T09:25:31.091Z,99511.39
2023-02-06T09:28:01.458Z,99513.48
2023-02-06T09:30:30.680Z,99514.23
2023-02-06T09:33:01.251Z,99512.27
2023-02-06T09:35:30.693Z,99503.67
2023-02-06T09:38:05.518Z,99505.17
2023-02-06T09:40:39.100Z,99497.13
2023-02-06T09:43:13.417Z,99496.06
2023-02-06T09:45:45.462Z,99494.13
2023-02-06T09:48:25.382Z,99494.27
2023-02-06T09:51:27.936Z,99494.23
2023-02-06T09:54:04.464Z,99490.05
2023-02-06T09:56:59.047Z,99490.09
2023-02-06T09:59:37.957Z,99486.48
2023-02-06T10:02:44.881Z,99479.63
2023-02-06T10:05:23.478Z,99481.85
2023-02-06T10:08:20.407Z,99476.09
2023-02-06T10:11:04.257Z,99472.80
2023-02-06T10:13:53.179Z,99471.77
2023-02-06T10:16:39.970Z,99467.46
2023-02-06T10:19:17.536Z,99470.29
2023-02-06T10:21:56.463Z,99469.92
2023-02-06T10:24:43.320Z,99467.27
2023-02-06T10:27:15.294Z,99464.59
2023-02-06T10:29:47.977Z,99464.31
2023-02-06T10:32:45.834Z,99459.39
2023-02-06T10:35:30.543Z,99459.55
2023-02-06T10:38:25.166Z,99455.25
2023-02-06T10:41:17.688Z,99457.70
2023-02-06T10:43:51.558Z,99462.73
2023-02-06T10:46:50.155Z,99456.27
2023-02-06T10:49:41.576Z,99456.93
2023-02-06T10:52:28.825Z,99453.84
2023-02-06T10:55:29.437Z,99450.38
2023-02-06T10:58:36.799Z,99445.88
2023-02-06T11:01:24.729Z,99450.48
2023-02-06T11:04:12.599Z,99447.36
2023-02-06T11:06:44.986Z,99442.64
2023-02-06T11:09:16.768Z,99445.39
2023-02-06T11:11:50.068Z,99442.82
2023-02-06T11:14:32.526Z,99436.80
2023-02-06T11:17:05.038Z,99437.83
2023-02-06T11:19:41.758Z,99437.48
2023-02-06T11:22:18.375Z,99441.05
2023-02-06T11:25:29.979Z,99442.30
2023-02-06T11:28:03.313Z,99440.84
2023-02-06T11:30:37.018Z,99444.11
2023-02-06T11:33:21.926Z,99444.43
2023-02-06T11:36:03.894Z,99442.55
2023-02-06T11:38:34.875Z,99441.83
2023-02-06T11:41:17.257Z,99437.35
2023-02-06T11:43:54.208Z,99438.58
2023-02-06T11:46:32.243Z,99439.83
2023-02-06T11:49:20.638Z,99440.91
2023-02-06T11:51:52.186Z,99439.27
2023-02-06T11:54:29.065Z,99431.77
2023-02-06T11:57:22.680Z,99431.32
2023-02-06T12:00:04.120Z,99428.13
2023-02-06T12:05:25.618Z,99414.02
2023-02-06T12:08:13.657Z,99415.23
2023-02-06T12:10:56.070Z,99409.96
2023-02-06T12:13:30.759Z,99407.05
2023-02-06T12:16:03.941Z,99411.15
2023-02-06T12:18:44.829Z,99412.08
2023-02-06T12:21:58.087Z,99415.08
2023-02-06T12:24:39.106Z,99419.36
2023-02-06T12:27:31.707Z,99421.54
2023-02-06T12:30:20.643Z,99419.73
2023-02-06T12:33:01.778Z,99416.02
2023-02-06T12:35:36.150Z,99411.61
2023-02-06T12:38:23.561Z,99409.48
2023-02-06T12:41:23.141Z,99410.09
2023-02-06T12:44:15.778Z,99406.22
2023-02-06T12:46:53.551Z,99408.62
2023-02-06T12:49:43.815Z,99409.46
2023-02-06T12:52:21.106Z,99408.09
2023-02-06T12:55:41.041Z,99414.33
2023-02-06T12:58:29.794Z,99416.35
2023-02-06T13:01:41.082Z,99422.33
2023-02-06T13:04:17.360Z,99427.58
2023-02-06T13:06:49.367Z,99423.48
2023-02-06T13:09:29.437Z,99420.30
2023-02-06T13:12:16.318Z,99416.86
2023-02-06T13:15:00.285Z,99420.00
2023-02-06T13:17:40.264Z,99416.79
2023-02-06T13:20:14.375Z,99421.12
2023-02-06T13:22:51.678Z,99426.39
2023-02-06T13:25:35.543Z,99424.66
2023-02-06T13:28:25.958Z,99429.89
2023-02-06T13:31:02.008Z,99425.79
2023-02-06T13:34:03.275Z,99424.51
2023-02-06T13:36:43.776Z,99420.67
2023-02-06T13:39:24.514Z,99425.68
2023-02-06T13:41:57.381Z,99423.02
2023-02-06T13:44:37.439Z,99423.89
2023-02-06T13:47:29.924Z,99428.70
2023-02-06T13:50:19.503Z,99431.39
2023-02-06T13:53:14.018Z,99431.43
2023-02-06T13:56:21.726Z,99436.17
2023-02-06T13:58:56.716Z,99440.21
2023-02-06T14:01:31.884Z,99443.15
2023-02-06T14:04:02.283Z,99445.89
2023-02-06T14:07:04.705Z,99447.27
2023-02-06T14:10:13.136Z,99447.79
2023-02-06T14:13:05.153Z,99449.89
2023-02-06T14:16:16.474Z,99448.86
2023-02-06T14:18:56.463Z,99456.64
2023-02-06T14:22:11.065Z,99456.65
2023-02-06T14:25:20.064Z,99459.69
2023-02-06T14:28:20.031Z,99461.11
2023-02-06T14:31:01.506Z,99459.74
2023-02-06T14:34:11.029Z,99460.60
2023-02-06T14:36:46.626Z,99457.02
2023-02-06T14:40:05.006Z,99456.26
2023-02-06T14:42:41.850Z,99450.83
2023-02-06T14:45:38.639Z,99453.86
2023-02-06T14:48:23.838Z,99454.63
2023-02-06T14:50:58.741Z,99460.48
2023-02-06T14:53:31.050Z,99457.20
2023-02-06T14:56:29.802Z,99454.50
2023-02-06T14:59:33.354Z,99456.36
2023-02-06T15:02:14.804Z,99461.66
2023-02-06T15:09:41.263Z,99470.73
2023-02-06T15:12:25.387Z,99472.11
2023-02-06T15:15:28.113Z,99477.23
2023-02-06T15:17:59.483Z,99479.30
2023-02-06T15:20:53.491Z,99479.05
2023-02-06T15:24:02.497Z,99485.96
2023-02-06T15:26:57.676Z,99489.37
2023-02-06T15:29:30.458Z,99485.46
2023-02-06T15:32:19.541Z,99485.40
2023-02-06T15:34:49.106Z,99482.40
2023-02-06T15:37:35.730Z,99490.20
2023-02-06T15:40:19.553Z,99492.39
2023-02-06T15:42:54.292Z,99493.42
2023-02-06T15:45:30.675Z,99495.48
2023-02-06T15:48:21.157Z,99499.98
2023-02-06T15:51:08.967Z,99500.52
2023-02-06T15:53:41.800Z,99504.86
2023-02-06T15:56:30.529Z,99507.03
2023-02-06T15:59:04.809Z,99510.88
2023-02-06T16:01:39.868Z,99516.14
2023-02-06T16:04:42.878Z,99519.39
2023-02-06T16:07:29.200Z,99520.55
2023-02-06T16:10:26.064Z,99522.54
2023-02-06T16:13:08.557Z,99527.02
2023-02-06T16:15:40.811Z,99530.20
2023-02-06T16:18:30.700Z,99530.02
2023-02-06T16:21:32.851Z,99538.02
2023-02-06T16:24:07.067Z,99540.68
2023-02-06T16:26:50.183Z,99541.66
2023-02-06T16:29:32.457Z,99543.71
2023-02-06T16:32:17.967Z,99548.06
2023-02-06T16:34:49.070Z,99552.44
2023-02-06T16:37:25.063Z,99550.73
2023-02-06T16:39:59.226Z,99553.86
2023-02-06T16:42:40.227Z,99554.27
2023-02-06T16:45:24.317Z,99555.94
2023-02-06T16:47:58.241Z,99564.57
2023-02-06T16:50:30.653Z,99568.79
2023-02-06T16:53:02.340Z,99572.63
2023-02-06T16:55:43.659Z,99571.26
2023-02-06T16:58:27.024Z,99577.69
2023-02-06T17:01:03.941Z,99579.01
2023-02-06T17:03:41.450Z,99577.63
2023-02-06T17:06:18.559Z,99575.62
2023-02-06T17:08:49.193Z,99575.71
2023-02-06T17:11:24.079Z,99573.58
2023-02-06T17:16:38.555Z,99574.43
2023-02-06T17:19:16.102Z,99576.72
2023-02-06T17:21:47.711Z,99572.36
2023-02-06T17:24:17.719Z,99577.65
2023-02-06T17:26:50.874Z,99580.56
2023-02-06T17:29:23.848Z,99582.53
2023-02-06T17:31:58.626Z,99585.09
2023-02-06T17:34:30.711Z,99583.96
2023-02-06T17:37:00.945Z,99587.25
2023-02-06T17:39:31.549Z,99589.02
2023-02-06T17:42:13.243Z,99587.90
2023-02-06T17:44:43.163Z,99585.41
2023-02-06T17:47:13.090Z,99580.91
2023-02-06T17:49:42.673Z,99582.56
2023-02-06T17:52:12.454Z,99584.40
2023-02-06T17:54:45.586Z,99585.36
2023-02-06T17:57:16.010Z,99585.01
2023-02-06T17:59:45.155Z,99587.33
2023-02-06T18:02:15.088Z,99590.20
2023-02-06T18:04:48.147Z,99588.69
2023-02-06T18:07:24.495Z,99592.13
2023-02-06T18:09:54.616Z,99589.73
2023-02-06T18:12:25.297Z,99588.52
2023-02-06T18:15:04.276Z,99592.71
2023-02-06T18:17:36.826Z,99596.60
2023-02-06T18:20:17.440Z,99599.93
2023-02-06T18:22:48.828Z,99601.14
2023-02-06T18:25:18.066Z,99599.20
2023-02-06T18:27:48.898Z,99600.09
2023-02-06T18:30:19.054Z,99595.13
2023-02-06T18:32:49.600Z,99591.52
2023-02-06T18:35:21.081Z,99592.60
2023-02-06T18:38:04.772Z,99592.67
2023-02-06T18:40:38.380Z,99595.18
2023-02-06T18:43:09.802Z,99593.08
2023-02-06T18:45:41.772Z,99596.77
2023-02-06T18:48:14.560Z,99589.42
2023-02-06T18:50:44.941Z,99588.85
2023-02-06T18:53:16.488Z,99593.00
2023-02-06T18:55:48.201Z,99593.64
2023-02-06T18:58:18.830Z,99594.49
2023-02-06T19:00:50.455Z,99594.03
2023-02-06T19:03:28.470Z,99593.38
2023-02-06T19:05:58.714Z,99596.64
2023-02-06T19:08:28.188Z,99593.65
2023-02-06T19:11:00.752Z,99600.43
2023-02-06T19:13:30.307Z,99600.02
2023-02-06T19:16:15.999Z,99603.50
2023-02-06T19:18:47.776Z,99604.97
2023-02-06T19:21:21.084Z,99607.25
2023-02-06T19:24:01.896Z,99609.58
2023-02-06T19:26:35.878Z,99609.16
2023-02-06T19:29:07.919Z,99616.63
2023-02-06T19:31:45.665Z,99615.42
2023-02-06T19:34:14.736Z,99617.73
2023-02-06T19:36:52.437Z,99617.63
2023-02-06T19:39:26.375Z,99618.45
2023-02-06T19:42:06.710Z,99617.76
2023-02-06T19:44:40.278Z,99621.73
2023-02-06T19:47:11.340Z,99624.27
2023-02-06T19:49:40.763Z,99622.57
2023-02-06T19:52:17.051Z,99627.02
2023-02-06T19:54:53.320Z,99628.99
2023-02-06T19:57:23.917Z,99622.94
2023-02-06T19:59:53.593Z,99622.17
2023-02-06T20:02:23.119Z,99626.91
2023-02-06T20:04:56.199Z,99629.73
2023-02-06T20:07:26.196Z,99633.41
2023-02-06T20:09:58.925Z,99629.10
2023-02-06T20:12:30.849Z,99630.70
2023-02-06T20:15:01.687Z,99637.79
2023-02-06T20:17:32.645Z,99637.92
2023-02-06T20:20:04.874Z,99638.48
2023-02-06T20:22:35.146Z,99644.00
2023-02-06T20:25:05.752Z,99647.90
2023-02-06T20:27:45.598Z,99648.77
2023-02-06T20:30:43.715Z,99650.46
2023-02-06T20:33:13.563Z,99657.85
2023-02-06T20:35:59.116Z,99661.04
2023-02-06T20:38:30.058Z,99663.29
2023-02-06T20:41:04.977Z,99661.70
2023-02-06T20:43:41.835Z,99663.31
2023-02-06T20:46:20.573Z,99658.57
2023-02-06T20:49:07.097Z,99666.63
2023-02-06T20:51:40.408Z,99668.79
2023-02-06T20:54:13.858Z,99675.13
2023-02-06T20:56:44.079Z,99677.38
2023-02-06T20:59:16.761Z,99676.91
2023-02-06T21:01:49.516Z,99679.42
2023-02-06T21:04:23.909Z,99682.60
2023-02-06T21:06:53.950Z,99680.23
2023-02-06T21:09:23.824Z,99684.70
2023-02-06T21:11:54.034Z,99689.44
2023-02-06T21:14:25.720Z,99691.25
2023-02-06T21:16:55.419Z,99691.20
2023-02-06T21:19:27.223Z,99694.05
2023-02-06T21:21:59.761Z,99690.86
2023-02-06T21:24:33.201Z,99689.34
2023-02-06T21:27:02.748Z,99687.44
2023-02-06T21:29:32.222Z,99686.63
2023-02-06T21:32:13.697Z,99685.56
2023-02-06T21:34:45.074Z,99681.80
2023-02-06T21:37:14.833Z,99683.08
2023-02-06T21:39:44.754Z,99682.71
2023-02-06T21:42:14.891Z,99683.67
2023-02-06T21:44:46.896Z,99684.10
2023-02-06T21:47:18.755Z,99685.44
2023-02-06T21:49:54.836Z,99691.27
2023-02-06T21:52:23.701Z,99693.49
2023-02-06T21:54:52.917Z,99699.15
2023-02-06T21:57:22.925Z,99697.77
2023-02-06T22:00:02.572Z,99700.73
2023-02-06T22:02:41.946Z,99703.92
2023-02-06T22:05:11.936Z,99699.94
2023-02-06T22:07:42.056Z,99699.54
2023-02-06T22:10:16.916Z,99698.75
2023-02-06T22:12:52.797Z,99700.64
2023-02-06T22:15:23.746Z,99701.25
2023-02-06T22:17:53.499Z,99704.60
2023-02-06T22:20:23.257Z,99699.42
2023-02-06T22:22:54.095Z,99704.15
2023-02-06T22:25:23.736Z,99702.66
2023-02-06T22:27:53.912Z,99704.63
2023-02-06T22:30:24.112Z,99707.71
2023-02-06T22:32:54.427Z,99707.83
2023-02-06T22:35:27.463Z,99710.48
2023-02-06T22:37:56.994Z,99715.77
2023-02-06T22:40:30.083Z,99720.09
2023-02-06T22:43:00.537Z,99722.02
2023-02-06T22:45:30.979Z,99721.83
2023-02-06T22:48:01.226Z,99724.43
2023-02-06T22:50:31.630Z,99721.96
2023-02-06T22:53:20.131Z,99720.91
2023-02-06T22:56:08.498Z,99714.87
2023-02-06T22:58:41.338Z,99712.88
2023-02-06T23:01:12.543Z,99714.95
2023-02-06T23:03:41.691Z,99711.67
2023-02-06T23:06:14.462Z,99711.06
2023-02-06T23:08:44.484Z,99715.21
2023-02-06T23:11:15.568Z,99712.75
2023-02-06T23:13:45.106Z,99715.21
2023-02-06T23:16:15.136Z,99717.98
2023-02-06T23:18:44.727Z,99718.23
2023-02-06T23:21:18.081Z,99718.48
2023-02-06T23:23:51.778Z,99720.05
2023-02-06T23:26:22.230Z,99718.86
2023-02-06T23:28:51.645Z,99713.48
2023-02-06T23:31:21.888Z,99712.77
2023-02-06T23:33:52.495Z,99710.43
2023-02-06T23:36:26.927Z,99709.91
2023-02-06T23:39:03.666Z,99709.85
2023-02-06T23:41:36.961Z,99706.14
2023-02-06T23:44:08.452Z,99703.92
2023-02-06T23:46:40.687Z,99700.20
2023-02-06T23:49:11.386Z,99697.02
2023-02-06T23:51:42.082Z,99696.92
2023-02-06T23:54:11.371Z,99698.34
2023-02-06T23:56:41.414Z,99692.45
2023-02-06T23:59:12.302Z,99694.29
